Time;durP1;ratioP1;P1;durP2;ratioP2;P2;SDS_P1;SDS_P2;PMS_P1;PMS_P2;Temp;Humidity;BMP_temperature;BMP_pressure;BME280_temperature;BME280_humidity;BME280_pressure;Samples;Min_cycle;Max_cycle;Signal;HPM_P1;HPM_P2
2023/07/25 00:01:32;;;;;;;2.45;1.60;;;16.30;99.90;;;;;;4972507;28;20023;-78
2023/07/25 00:03:58;;;;;;;4.40;1.92;;;16.30;99.90;;;;;;4954914;28;20077;-78
2023/07/25 00:06:23;;;;;;;1.63;1.52;;;16.30;99.90;;;;;;4972225;28;20037;-78
2023/07/25 00:08:49;;;;;;;10.68;2.22;;;16.30;99.90;;;;;;4972875;28;20055;-78
2023/07/25 00:11:15;;;;;;;2.20;1.38;;;16.40;99.90;;;;;;4955169;28;20439;-83
2023/07/25 00:13:41;;;;;;;5.13;2.05;;;16.40;99.90;;;;;;4972810;28;20050;-78
2023/07/25 00:16:06;;;;;;;2.78;1.67;;;16.40;99.90;;;;;;4954004;28;20038;-78
2023/07/25 00:18:32;;;;;;;1.30;1.10;;;16.50;99.90;;;;;;4954614;28;20142;-78
2023/07/25 00:20:57;;;;;;;2.92;1.60;;;16.60;99.90;;;;;;4971668;28;20030;-77
2023/07/25 00:23:23;;;;;;;3.80;1.70;;;16.60;99.90;;;;;;4972026;28;20043;-77
2023/07/25 00:25:49;;;;;;;2.78;1.60;;;16.50;99.90;;;;;;4972292;28;20022;-78
2023/07/25 00:28:14;;;;;;;4.65;2.30;;;16.50;99.90;;;;;;4971941;28;20027;-78
2023/07/25 00:30:40;;;;;;;4.00;1.77;;;16.50;99.90;;;;;;4954998;28;20035;-78
2023/07/25 00:33:07;;;;;;;5.85;2.13;;;16.50;99.90;;;;;;4971739;28;20041;-78
2023/07/25 00:35:32;;;;;;;1.88;1.42;;;16.30;99.90;;;;;;4954067;28;20031;-78
2023/07/25 00:37:58;;;;;;;3.30;1.80;;;16.30;99.90;;;;;;4954240;28;20250;-78
2023/07/25 00:40:24;;;;;;;2.78;1.73;;;16.30;99.90;;;;;;4954408;28;20195;-78
2023/07/25 00:42:56;;;;;;;2.40;1.58;;;16.20;99.90;;;;;;4954651;28;20042;-78
2023/07/25 00:45:22;;;;;;;2.08;1.13;;;16.20;99.90;;;;;;4971924;28;20531;-77
2023/07/25 00:47:49;;;;;;;1.35;1.10;;;16.20;99.90;;;;;;4954421;28;20049;-78
2023/07/25 00:50:14;;;;;;;5.18;1.95;;;16.20;99.90;;;;;;4971347;28;20098;-78
2023/07/25 00:52:40;;;;;;;1.45;1.30;;;16.10;99.90;;;;;;4971255;28;20158;-78
2023/07/25 00:55:07;;;;;;;2.20;1.75;;;16.00;99.90;;;;;;4954215;28;20384;-78
2023/07/25 00:57:32;;;;;;;2.28;1.65;;;16.00;99.90;;;;;;4971452;28;20419;-78
2023/07/25 00:59:58;;;;;;;2.47;1.50;;;15.90;99.90;;;;;;4971559;28;20030;-78
2023/07/25 01:02:24;;;;;;;1.80;1.40;;;16.00;99.90;;;;;;4955328;28;20435;-78
2023/07/25 01:04:50;;;;;;;6.40;1.13;;;16.10;99.90;;;;;;4971340;28;20468;-78
2023/07/25 01:07:16;;;;;;;1.77;1.67;;;15.90;99.90;;;;;;4954169;28;20023;-78
2023/07/25 01:09:45;;;;;;;2.42;1.88;;;15.90;99.90;;;;;;4953898;28;20038;-78
2023/07/25 01:12:12;;;;;;;1.85;1.67;;;15.80;99.90;;;;;;4971360;28;20058;-78
2023/07/25 01:14:39;;;;;;;3.60;1.75;;;15.80;99.90;;;;;;4971146;28;20026;-78
2023/07/25 01:17:18;;;;;;;1.70;1.35;;;15.70;99.90;;;;;;4971189;28;20027;-78
2023/07/25 01:19:46;;;;;;;2.85;1.67;;;15.60;99.90;;;;;;4971162;28;20026;-78
2023/07/25 01:22:12;;;;;;;1.00;1.00;;;15.60;99.90;;;;;;4953599;28;20043;-78
2023/07/25 01:24:45;;;;;;;1.67;1.13;;;15.60;99.90;;;;;;4954316;28;20023;-78
2023/07/25 01:27:12;;;;;;;1.95;1.20;;;15.60;99.90;;;;;;4950784;28;20097;-78
2023/07/25 01:29:37;;;;;;;2.72;1.65;;;15.50;99.90;;;;;;4953667;28;20029;-78
2023/07/25 01:32:03;;;;;;;3.72;1.17;;;15.60;99.90;;;;;;4955317;28;20026;-78
2023/07/25 01:34:29;;;;;;;1.75;1.42;;;15.60;99.90;;;;;;4953982;28;20431;-78
2023/07/25 01:36:54;;;;;;;1.80;1.48;;;15.40;99.90;;;;;;4953874;28;20026;-78
2023/07/25 01:39:20;;;;;;;5.82;1.55;;;15.30;99.90;;;;;;4957568;28;20074;-79
2023/07/25 01:41:46;;;;;;;1.95;1.48;;;15.30;99.90;;;;;;4977939;28;20031;-78
2023/07/25 01:44:12;;;;;;;3.05;1.38;;;15.20;99.90;;;;;;4972641;28;20384;-78
2023/07/25 01:46:40;;;;;;;3.20;1.05;;;15.20;99.90;;;;;;4953642;28;20436;-78
2023/07/25 01:49:08;;;;;;;2.47;0.88;;;15.30;99.90;;;;;;4953551;28;20023;-78
2023/07/25 01:51:34;;;;;;;4.85;1.70;;;15.20;99.90;;;;;;4953051;28;20027;-78
2023/07/25 01:53:59;;;;;;;4.20;1.02;;;15.30;99.90;;;;;;4953708;28;20368;-79
2023/07/25 01:56:25;;;;;;;1.67;1.55;;;15.40;99.90;;;;;;4953585;28;20038;-77
2023/07/25 01:58:51;;;;;;;2.08;1.15;;;15.30;99.90;;;;;;4953497;28;20126;-78
2023/07/25 02:01:16;;;;;;;5.13;1.88;;;15.30;99.90;;;;;;4953519;28;20062;-77
2023/07/25 02:03:42;;;;;;;1.23;0.98;;;15.30;99.90;;;;;;4953657;28;20483;-78
2023/07/25 02:06:08;;;;;;;1.52;0.70;;;15.30;99.90;;;;;;4953304;28;20085;-78
2023/07/25 02:08:34;;;;;;;1.70;1.52;;;15.40;99.90;;;;;;4970706;28;20023;-78
2023/07/25 02:11:01;;;;;;;1.30;1.20;;;15.50;99.90;;;;;;4953472;28;20027;-78
2023/07/25 02:13:26;;;;;;;1.38;1.10;;;15.40;99.90;;;;;;4971314;28;20033;-78
2023/07/25 02:15:52;;;;;;;4.63;1.42;;;15.60;99.90;;;;;;4971837;28;20046;-78
2023/07/25 02:18:17;;;;;;;2.05;1.30;;;15.80;99.90;;;;;;4954914;28;20022;-78
2023/07/25 02:20:43;;;;;;;1.42;0.73;;;16.00;99.90;;;;;;4971490;28;20353;-78
2023/07/25 02:23:08;;;;;;;0.85;0.70;;;16.10;99.90;;;;;;4954160;28;20058;-78
2023/07/25 02:25:34;;;;;;;3.88;1.55;;;16.30;99.90;;;;;;4972154;28;20031;-78
2023/07/25 02:28:00;;;;;;;1.63;1.02;;;16.50;99.90;;;;;;4954513;28;20500;-78
2023/07/25 02:30:26;;;;;;;1.02;0.82;;;16.60;99.90;;;;;;4953942;28;20037;-78
2023/07/25 02:32:51;;;;;;;1.17;1.08;;;16.60;99.90;;;;;;4972392;28;20023;-78
2023/07/25 02:35:17;;;;;;;2.78;1.10;;;16.70;99.90;;;;;;4973328;28;20403;-78
2023/07/25 02:37:43;;;;;;;1.95;0.93;;;16.90;99.90;;;;;;4956234;28;20034;-77
2023/07/25 02:40:09;;;;;;;3.67;0.75;;;17.00;99.90;;;;;;4976829;28;20085;-77
2023/07/25 02:42:35;;;;;;;1.42;1.25;;;17.10;99.90;;;;;;4959377;28;20443;-78
2023/07/25 02:45:02;;;;;;;3.05;0.98;;;17.30;99.90;;;;;;4977773;28;20388;-78
2023/07/25 02:47:28;;;;;;;1.05;1.05;;;17.40;99.90;;;;;;4959250;28;20772;-77
2023/07/25 02:49:54;;;;;;;1.70;0.82;;;17.50;99.90;;;;;;4978073;28;20057;-77
2023/07/25 02:52:20;;;;;;;3.45;1.50;;;17.40;99.90;;;;;;4959965;28;20463;-78
2023/07/25 02:54:45;;;;;;;9.73;1.40;;;17.40;99.90;;;;;;4978350;28;20066;-78
2023/07/25 02:57:11;;;;;;;3.72;1.13;;;17.40;99.90;;;;;;4960410;28;20121;-77
2023/07/25 02:59:37;;;;;;;1.13;1.02;;;17.40;99.90;;;;;;4976565;28;20027;-77
2023/07/25 03:02:02;;;;;;;0.77;0.77;;;17.40;99.90;;;;;;4959463;28;20077;-78
2023/07/25 03:04:29;;;;;;;1.00;0.88;;;17.40;99.90;;;;;;4959105;28;20069;-77
2023/07/25 03:06:55;;;;;;;1.15;0.80;;;17.40;99.90;;;;;;4976149;28;20031;-78
2023/07/25 03:09:21;;;;;;;1.15;1.02;;;17.30;99.90;;;;;;4959950;28;20030;-78
2023/07/25 03:11:46;;;;;;;3.30;0.70;;;17.30;99.90;;;;;;4977430;28;20027;-78
2023/07/25 03:14:12;;;;;;;2.25;1.30;;;17.20;99.90;;;;;;4960268;28;20089;-78
2023/07/25 03:16:38;;;;;;;3.45;1.63;;;17.20;99.90;;;;;;4959807;28;20113;-78
2023/07/25 03:19:03;;;;;;;4.20;1.25;;;17.20;99.90;;;;;;4977484;28;20030;-77
2023/07/25 03:21:29;;;;;;;2.50;1.20;;;17.10;99.90;;;;;;4960279;28;20801;-78
2023/07/25 03:23:54;;;;;;;5.47;1.38;;;17.00;99.90;;;;;;4977464;28;20546;-78
2023/07/25 03:26:20;;;;;;;0.82;0.82;;;17.00;99.90;;;;;;4977289;28;20492;-78
2023/07/25 03:28:46;;;;;;;1.80;1.00;;;16.90;99.90;;;;;;4977271;28;20071;-78
2023/07/25 03:31:12;;;;;;;1.85;1.00;;;16.80;99.90;;;;;;4960493;28;20023;-78
2023/07/25 03:33:38;;;;;;;1.52;0.85;;;16.70;99.90;;;;;;4961095;28;20030;-77
2023/07/25 03:36:04;;;;;;;1.48;1.05;;;16.60;99.90;;;;;;4960674;28;20066;-78
2023/07/25 03:38:29;;;;;;;2.15;1.08;;;16.60;99.90;;;;;;4977385;28;20023;-78
2023/07/25 03:40:55;;;;;;;1.02;0.90;;;16.60;99.90;;;;;;4960835;28;20066;-78
2023/07/25 03:43:20;;;;;;;2.90;1.15;;;16.50;99.90;;;;;;4977625;28;20501;-79
2023/07/25 03:45:46;;;;;;;1.40;1.30;;;16.50;99.90;;;;;;4975035;28;20026;-78
2023/07/25 03:48:12;;;;;;;1.92;0.80;;;16.40;99.90;;;;;;4956918;28;20026;-78
2023/07/25 03:50:37;;;;;;;3.13;1.17;;;16.40;99.90;;;;;;4957523;28;20081;-78
2023/07/25 03:53:04;;;;;;;3.25;1.20;;;16.40;99.90;;;;;;4955429;28;20085;-78
2023/07/25 03:55:30;;;;;;;4.20;1.20;;;16.40;99.90;;;;;;4955933;28;20487;-78
2023/07/25 03:57:56;;;;;;;1.33;1.05;;;16.40;99.90;;;;;;4958605;28;20076;-77
2023/07/25 04:00:21;;;;;;;2.75;1.10;;;16.50;99.90;;;;;;4974979;28;20026;-78
2023/07/25 04:02:47;;;;;;;1.38;1.17;;;16.60;99.90;;;;;;4957449;28;20023;-78
2023/07/25 04:05:12;;;;;;;0.98;0.98;;;16.70;99.90;;;;;;4956248;28;20030;-77
2023/07/25 04:07:38;;;;;;;2.03;1.00;;;16.70;99.90;;;;;;4955627;28;20038;-78
2023/07/25 04:10:04;;;;;;;2.05;0.98;;;16.80;99.90;;;;;;4956402;28;20480;-78
2023/07/25 04:12:30;;;;;;;4.50;1.00;;;16.80;99.90;;;;;;4956835;28;20027;-77
2023/07/25 04:14:56;;;;;;;2.40;0.90;;;16.80;99.90;;;;;;4956940;28;20034;-78
2023/07/25 04:17:21;;;;;;;1.35;0.70;;;16.80;99.90;;;;;;4956991;28;20058;-78
2023/07/25 04:19:47;;;;;;;2.60;0.75;;;16.80;99.90;;;;;;4974128;28;20101;-78
2023/07/25 04:22:13;;;;;;;6.07;1.25;;;16.70;99.90;;;;;;4956692;28;20514;-78
2023/07/25 04:24:38;;;;;;;2.13;1.00;;;16.70;99.90;;;;;;4957469;28;20035;-78
2023/07/25 04:27:04;;;;;;;0.77;0.75;;;16.70;99.90;;;;;;4974846;28;20023;-78
2023/07/25 04:29:30;;;;;;;2.53;0.80;;;16.60;99.90;;;;;;4955330;28;20105;-78
2023/07/25 04:31:56;;;;;;;1.73;1.20;;;16.60;99.90;;;;;;4959680;28;20026;-79
2023/07/25 04:34:22;;;;;;;0.93;0.90;;;16.60;99.90;;;;;;4979625;28;20031;-78
2023/07/25 04:36:47;;;;;;;1.15;0.75;;;16.70;99.90;;;;;;4976914;28;20161;-78
2023/07/25 04:39:13;;;;;;;3.08;1.13;;;16.70;99.90;;;;;;4975002;28;20279;-78
2023/07/25 04:41:39;;;;;;;1.15;0.95;;;16.80;99.90;;;;;;4957100;28;20027;-78
2023/07/25 04:44:04;;;;;;;1.10;0.75;;;16.90;99.90;;;;;;4974001;28;20421;-78
2023/07/25 04:46:30;;;;;;;0.80;0.80;;;17.00;99.90;;;;;;4973422;28;20557;-78
2023/07/25 04:48:56;;;;;;;1.00;0.80;;;17.10;99.90;;;;;;4973214;28;20049;-78
2023/07/25 04:51:22;;;;;;;1.88;0.70;;;17.20;99.90;;;;;;4955481;28;20125;-78
2023/07/25 04:53:48;;;;;;;2.22;1.15;;;17.20;99.90;;;;;;4971926;28;20042;-78
2023/07/25 04:56:13;;;;;;;3.55;0.93;;;17.20;99.90;;;;;;4955943;28;20064;-77
2023/07/25 04:58:40;;;;;;;1.48;1.38;;;17.10;99.90;;;;;;4956383;28;20023;-78
2023/07/25 05:01:10;;;;;;;1.95;1.38;;;17.10;99.90;;;;;;4972657;28;20023;-78
2023/07/25 05:03:36;;;;;;;1.95;1.08;;;17.00;99.90;;;;;;4954819;28;20023;-78
2023/07/25 05:06:01;;;;;;;1.10;1.10;;;17.00;99.90;;;;;;4954815;28;20399;-78
2023/07/25 05:08:27;;;;;;;1.85;1.20;;;17.00;99.90;;;;;;4955695;28;20038;-78
2023/07/25 05:10:53;;;;;;;2.45;1.25;;;17.00;99.90;;;;;;4972324;28;20026;-78
2023/07/25 05:13:19;;;;;;;2.22;1.00;;;17.10;99.90;;;;;;4972193;28;20018;-78
2023/07/25 05:15:45;;;;;;;1.20;1.02;;;17.20;99.90;;;;;;4954111;28;20492;-78
2023/07/25 05:18:11;;;;;;;3.15;1.88;;;17.20;99.90;;;;;;4971496;28;20026;-78
2023/07/25 05:20:36;;;;;;;1.20;0.80;;;17.30;99.90;;;;;;4953719;28;20027;-78
2023/07/25 05:23:02;;;;;;;1.35;1.25;;;17.50;99.90;;;;;;4953259;28;20199;-78
2023/07/25 05:25:27;;;;;;;0.80;0.80;;;17.50;99.90;;;;;;4971377;28;20030;-78
2023/07/25 05:27:53;;;;;;;4.00;1.30;;;17.60;99.90;;;;;;4953727;28;20077;-78
2023/07/25 05:30:19;;;;;;;0.60;0.60;;;17.60;99.90;;;;;;4971768;28;20031;-78
2023/07/25 05:32:45;;;;;;;1.67;0.95;;;17.50;99.90;;;;;;4971975;28;20427;-78
2023/07/25 05:35:11;;;;;;;1.48;0.60;;;17.30;99.90;;;;;;4972333;28;20442;-78
2023/07/25 05:37:38;;;;;;;1.83;1.05;;;17.20;99.90;;;;;;4955484;28;20023;-78
2023/07/25 05:40:05;;;;;;;1.48;0.82;;;17.00;99.90;;;;;;4955952;28;20037;-79
2023/07/25 05:42:31;;;;;;;3.35;1.13;;;16.90;99.90;;;;;;4957559;28;20023;-79
2023/07/25 05:44:59;;;;;;;2.47;1.35;;;16.80;99.90;;;;;;4958411;28;20023;-78
2023/07/25 05:47:24;;;;;;;1.38;1.05;;;16.80;99.90;;;;;;4958880;28;20030;-79
2023/07/25 05:49:50;;;;;;;6.78;1.17;;;16.90;99.90;;;;;;4958462;28;20034;-78
2023/07/25 05:52:16;;;;;;;1.10;1.00;;;17.00;99.90;;;;;;4975902;28;20038;-79
2023/07/25 05:54:43;;;;;;;2.67;0.80;;;17.10;99.90;;;;;;4957003;28;20034;-78
2023/07/25 05:57:09;;;;;;;3.28;1.13;;;17.20;99.90;;;;;;4954339;28;20517;-79
2023/07/25 05:59:34;;;;;;;2.08;1.23;;;17.30;99.90;;;;;;4954943;28;20018;-79
2023/07/25 06:02:00;;;;;;;3.60;1.10;;;17.40;99.90;;;;;;4972231;28;20093;-78
2023/07/25 06:04:26;;;;;;;1.85;1.33;;;17.40;99.90;;;;;;4957021;28;20061;-78
2023/07/25 06:06:51;;;;;;;2.55;1.40;;;17.50;99.90;;;;;;4972357;28;20547;-79
2023/07/25 06:09:17;;;;;;;3.40;1.05;;;17.60;99.90;;;;;;4973229;28;20086;-78
2023/07/25 06:11:42;;;;;;;1.15;0.95;;;17.60;99.90;;;;;;4973334;28;20029;-79
2023/07/25 06:14:08;;;;;;;2.25;1.17;;;17.60;99.90;;;;;;4954220;28;20034;-79
2023/07/25 06:16:34;;;;;;;7.85;1.50;;;17.70;99.90;;;;;;4972829;28;20118;-79
2023/07/25 06:18:59;;;;;;;3.63;1.30;;;17.70;99.90;;;;;;4957792;28;20038;-79
2023/07/25 06:21:26;;;;;;;2.83;1.00;;;17.80;99.90;;;;;;4958384;28;20046;-79
2023/07/25 06:23:51;;;;;;;2.65;1.45;;;17.70;99.90;;;;;;4957447;28;20050;-79
2023/07/25 06:26:17;;;;;;;4.88;2.15;;;17.90;99.90;;;;;;4955050;28;20484;-79
2023/07/25 06:28:44;;;;;;;3.03;1.58;;;18.70;99.90;;;;;;4972494;28;20051;-79
2023/07/25 06:31:10;;;;;;;3.20;1.48;;;18.30;99.90;;;;;;4955322;28;20034;-79
2023/07/25 06:33:36;;;;;;;1.65;1.55;;;18.20;99.90;;;;;;4957960;28;20027;-79
2023/07/25 06:36:01;;;;;;;5.85;1.00;;;18.10;99.90;;;;;;4974106;28;20043;-79
2023/07/25 06:38:27;;;;;;;2.50;1.05;;;18.10;99.90;;;;;;4956759;28;20479;-79
2023/07/25 06:40:52;;;;;;;2.53;1.38;;;18.00;99.90;;;;;;4956019;28;20085;-78
2023/07/25 06:43:18;;;;;;;3.75;1.83;;;18.10;99.90;;;;;;4972189;28;20022;-79
2023/07/25 06:45:44;;;;;;;4.50;1.70;;;18.20;99.90;;;;;;4957679;28;20127;-79
2023/07/25 06:48:09;;;;;;;7.57;1.75;;;18.40;99.90;;;;;;4957291;28;20214;-79
2023/07/25 06:50:35;;;;;;;1.48;1.08;;;18.70;99.90;;;;;;4972705;28;20396;-80
2023/07/25 06:53:04;;;;;;;2.13;0.80;;;19.20;99.90;;;;;;4972577;28;20019;-79
2023/07/25 06:55:29;;;;;;;1.95;1.25;;;19.40;99.90;;;;;;4975673;28;20035;-79
2023/07/25 06:57:55;;;;;;;1.52;1.30;;;19.40;99.90;;;;;;4975505;28;20110;-80
2023/07/25 07:00:21;;;;;;;12.57;1.60;;;19.40;99.90;;;;;;4959276;28;20085;-79
2023/07/25 07:02:47;;;;;;;4.05;1.17;;;19.60;99.90;;;;;;4959360;28;20023;-79
2023/07/25 07:05:12;;;;;;;4.97;1.27;;;19.80;99.90;;;;;;4974908;28;20089;-79
2023/07/25 07:07:40;;;;;;;3.03;0.88;;;19.90;99.90;;;;;;4973755;28;20165;-80
2023/07/25 07:10:06;;;;;;;2.22;0.95;;;19.90;99.90;;;;;;4956842;28;20026;-79
2023/07/25 07:12:32;;;;;;;2.40;1.05;;;19.70;99.90;;;;;;4956079;28;20023;-80
2023/07/25 07:14:57;;;;;;;4.80;1.20;;;20.30;99.90;;;;;;4972021;28;20054;-79
2023/07/25 07:17:23;;;;;;;1.85;0.90;;;20.90;99.90;;;;;;4975595;28;20023;-79
2023/07/25 07:19:49;;;;;;;2.38;0.70;;;20.60;99.90;;;;;;4974447;28;20101;-79
2023/07/25 07:22:14;;;;;;;5.95;1.35;;;20.10;99.90;;;;;;4974965;28;20589;-80
2023/07/25 07:24:41;;;;;;;2.83;1.20;;;20.70;99.90;;;;;;4955820;28;20113;-78
2023/07/25 07:27:06;;;;;;;2.00;1.13;;;22.00;99.90;;;;;;4966220;28;20029;-79
2023/07/25 07:29:32;;;;;;;5.93;1.00;;;22.70;96.40;;;;;;4959209;28;20035;-79
2023/07/25 07:31:59;;;;;;;2.70;1.42;;;22.50;95.20;;;;;;4958277;28;20062;-79
2023/07/25 07:34:25;;;;;;;1.83;0.88;;;22.10;95.40;;;;;;4975479;28;20027;-78
2023/07/25 07:36:51;;;;;;;1.98;1.20;;;22.10;94.80;;;;;;4975615;28;20090;-78
2023/07/25 07:39:16;;;;;;;3.22;1.40;;;22.00;94.20;;;;;;4975659;28;20504;-78
2023/07/25 07:41:42;;;;;;;8.32;1.80;;;21.90;95.40;;;;;;4956778;28;20057;-79
2023/07/25 07:44:08;;;;;;;2.05;0.93;;;22.60;94.70;;;;;;4957496;28;20058;-78
2023/07/25 07:46:34;;;;;;;8.13;2.00;;;22.60;93.90;;;;;;4956085;28;20554;-78
2023/07/25 07:49:00;;;;;;;2.88;0.95;;;23.00;92.50;;;;;;4974045;28;20499;-79
2023/07/25 07:51:26;;;;;;;2.72;1.00;;;22.60;93.30;;;;;;4955764;28;20085;-79
2023/07/25 07:53:52;;;;;;;2.67;0.88;;;22.80;92.30;;;;;;4972881;28;20034;-79
2023/07/25 07:56:18;;;;;;;2.53;1.40;;;23.30;91.50;;;;;;4972651;28;20078;-79
2023/07/25 07:58:44;;;;;;;4.50;1.20;;;23.30;91.40;;;;;;4955655;28;20507;-78
2023/07/25 08:01:15;;;;;;;3.17;1.30;;;23.30;90.60;;;;;;4973298;28;20034;-78
2023/07/25 08:03:41;;;;;;;3.22;1.35;;;23.10;90.00;;;;;;4957486;28;20093;-78
2023/07/25 08:06:06;;;;;;;4.57;1.42;;;21.50;92.80;;;;;;4974385;28;20030;-78
2023/07/25 08:08:32;;;;;;;3.00;1.38;;;20.70;94.00;;;;;;4974150;28;20530;-78
2023/07/25 08:10:57;;;;;;;3.45;1.05;;;20.70;94.80;;;;;;4974294;28;20117;-79
2023/07/25 08:13:23;;;;;;;2.58;0.80;;;20.60;95.30;;;;;;4973768;28;20027;-79
2023/07/25 08:15:48;;;;;;;1.55;1.00;;;20.70;95.80;;;;;;4957984;28;20392;-77
2023/07/25 08:18:14;;;;;;;2.40;1.25;;;21.90;93.40;;;;;;4957032;28;20026;-78
2023/07/25 08:20:40;;;;;;;3.25;0.93;;;21.90;92.30;;;;;;4956706;28;20038;-78
2023/07/25 08:23:06;;;;;;;1.15;0.80;;;21.40;93.20;;;;;;4975211;28;20049;-78
2023/07/25 08:25:32;;;;;;;2.17;1.10;;;21.50;94.80;;;;;;4957215;28;20030;-79
2023/07/25 08:27:57;;;;;;;2.05;0.82;;;21.50;94.70;;;;;;4957945;28;20050;-78
2023/07/25 08:30:23;;;;;;;2.33;0.90;;;21.20;94.50;;;;;;4956663;28;20542;-78
2023/07/25 08:32:48;;;;;;;2.63;1.08;;;20.70;95.10;;;;;;4974303;28;20019;-78
2023/07/25 08:35:14;;;;;;;3.90;1.40;;;20.60;94.40;;;;;;4973951;28;20034;-78
2023/07/25 08:37:40;;;;;;;2.80;1.00;;;20.60;95.10;;;;;;4973241;28;20526;-78
2023/07/25 08:40:07;;;;;;;1.27;0.70;;;20.60;95.30;;;;;;4957151;28;20408;-78
2023/07/25 08:42:38;;;;;;;3.03;1.20;;;20.70;95.00;;;;;;4974929;28;20124;-79
2023/07/25 08:45:07;;;;;;;4.00;1.05;;;20.90;96.20;;;;;;4957688;28;20094;-78
2023/07/25 08:47:37;;;;;;;1.48;1.15;;;20.80;95.50;;;;;;4974856;28;20022;-78
2023/07/25 08:50:05;;;;;;;0.98;0.88;;;20.40;96.00;;;;;;4956865;28;20483;-78
2023/07/25 08:52:32;;;;;;;8.45;1.42;;;20.00;97.30;;;;;;4974633;28;20027;-77
2023/07/25 08:54:58;;;;;;;2.33;0.90;;;19.40;99.90;;;;;;4957073;28;20062;-78
2023/07/25 08:57:26;;;;;;;2.40;0.85;;;18.70;99.90;;;;;;4976491;28;20030;-78
2023/07/25 08:59:53;;;;;;;5.18;1.10;;;18.00;99.90;;;;;;4960506;28;20353;-79
2023/07/25 09:02:20;;;;;;;3.47;1.08;;;17.30;99.90;;;;;;4978491;28;20038;-79
2023/07/25 09:04:47;;;;;;;2.13;1.02;;;16.80;99.90;;;;;;4977243;28;20418;-79
2023/07/25 09:07:13;;;;;;;1.30;1.05;;;16.60;99.90;;;;;;4976234;28;20026;-79
2023/07/25 09:09:39;;;;;;;3.38;1.08;;;16.40;99.90;;;;;;4960717;28;20241;-79
2023/07/25 09:12:07;;;;;;;3.95;2.10;;;16.20;99.90;;;;;;4960443;28;20395;-78
2023/07/25 09:14:33;;;;;;;2.55;1.20;;;16.00;99.90;;;;;;4978019;28;20482;-78
2023/07/25 09:16:59;;;;;;;2.10;1.23;;;15.80;99.90;;;;;;4955979;28;20039;-77
2023/07/25 09:19:24;;;;;;;8.05;1.52;;;15.70;99.90;;;;;;4976419;28;20019;-78
2023/07/25 09:21:58;;;;;;;2.25;1.45;;;15.70;99.90;;;;;;4958650;28;20491;-77
2023/07/25 09:24:36;;;;;;;3.53;1.25;;;15.80;99.90;;;;;;4959410;28;20275;-77
2023/07/25 09:27:01;;;;;;;1.05;0.95;;;16.00;99.90;;;;;;4959112;28;20023;-78
2023/07/25 09:29:30;;;;;;;3.92;0.82;;;16.40;99.90;;;;;;4976336;28;20026;-78
2023/07/25 09:31:56;;;;;;;1.65;1.15;;;16.80;99.90;;;;;;4954995;28;20027;-78
2023/07/25 09:34:25;;;;;;;1.17;1.08;;;17.30;99.90;;;;;;4954714;28;20041;-78
2023/07/25 09:36:51;;;;;;;1.23;1.10;;;17.70;99.90;;;;;;4954886;28;20507;-78
2023/07/25 09:39:17;;;;;;;0.88;0.82;;;18.40;99.90;;;;;;4954580;28;20167;-79
2023/07/25 09:41:45;;;;;;;1.42;0.90;;;19.30;99.90;;;;;;4954321;28;20093;-80
2023/07/25 09:44:11;;;;;;;1.08;0.82;;;20.40;99.90;;;;;;4953907;28;20058;-79
2023/07/25 09:46:37;;;;;;;2.10;0.90;;;20.90;99.90;;;;;;4954720;28;20419;-79
2023/07/25 09:49:03;;;;;;;0.85;0.70;;;20.60;99.90;;;;;;4955038;28;20019;-80
2023/07/25 09:51:29;;;;;;;2.05;1.17;;;20.30;99.90;;;;;;4956330;28;20027;-79
2023/07/25 09:53:55;;;;;;;1.17;0.90;;;20.20;99.90;;;;;;4974007;28;20029;-78
2023/07/25 09:56:25;;;;;;;2.53;0.98;;;20.30;99.90;;;;;;4973595;28;20480;-79
2023/07/25 09:58:51;;;;;;;1.00;0.85;;;20.30;99.90;;;;;;4954672;28;20061;-79
2023/07/25 10:01:18;;;;;;;0.60;0.60;;;20.10;99.90;;;;;;4959223;28;20031;-79
2023/07/25 10:03:45;;;;;;;3.88;0.90;;;20.00;99.90;;;;;;4955927;28;20022;-80
2023/07/25 10:06:12;;;;;;;1.13;0.95;;;20.30;99.90;;;;;;4954358;28;20031;-80
2023/07/25 10:08:44;;;;;;;2.15;0.90;;;20.50;99.90;;;;;;4954853;28;20026;-79
2023/07/25 10:11:15;;;;;;;1.00;0.88;;;20.70;99.90;;;;;;4972170;28;20023;-79
2023/07/25 10:13:43;;;;;;;1.00;0.90;;;20.60;99.90;;;;;;4955861;28;20399;-78
2023/07/25 10:16:14;;;;;;;0.73;0.65;;;20.80;99.90;;;;;;4955726;28;20491;-79
2023/07/25 10:18:39;;;;;;;1.27;0.85;;;21.10;99.90;;;;;;4956415;28;20035;-78
2023/07/25 10:21:08;;;;;;;1.10;0.60;;;21.40;99.90;;;;;;4961649;28;20038;-79
2023/07/25 10:23:35;;;;;;;0.40;0.40;;;22.00;99.90;;;;;;4956083;28;20047;-78
2023/07/25 10:26:14;;;;;;;1.45;1.08;;;22.50;99.90;;;;;;4952914;28;20023;-79
2023/07/25 10:28:40;;;;;;;2.58;0.75;;;22.60;99.90;;;;;;4953343;28;20499;-80
2023/07/25 10:31:22;;;;;;;1.17;0.50;;;22.80;99.90;;;;;;4952945;28;20027;-79
2023/07/25 10:33:57;;;;;;;1.92;0.82;;;23.00;99.90;;;;;;4970227;28;20054;-78
2023/07/25 10:36:23;;;;;;;1.13;0.60;;;23.20;99.90;;;;;;4969499;28;20038;-78
2023/07/25 10:38:49;;;;;;;1.35;0.60;;;23.40;99.90;;;;;;4970257;28;20496;-77
2023/07/25 10:41:18;;;;;;;0.98;0.60;;;23.70;99.90;;;;;;4952963;28;20131;-78
2023/07/25 10:43:55;;;;;;;0.95;0.55;;;24.50;96.60;;;;;;4952850;28;20045;-78
2023/07/25 10:46:32;;;;;;;1.50;0.60;;;23.90;94.30;;;;;;4952850;28;20031;-78
2023/07/25 10:49:02;;;;;;;3.60;1.20;;;23.40;95.50;;;;;;4937064;28;20026;-78
2023/07/25 10:51:51;;;;;;;0.63;0.63;;;23.20;94.50;;;;;;4970018;28;20027;-78
2023/07/25 10:54:21;;;;;;;0.93;0.90;;;23.20;96.60;;;;;;4970240;28;20074;-78
2023/07/25 10:57:22;;;;;;;2.88;0.73;;;23.70;93.30;;;;;;4952515;28;20043;-78
2023/07/25 11:00:04;;;;;;;1.38;0.60;;;24.10;91.00;;;;;;4913605;28;20142;-79
2023/07/25 11:02:31;;;;;;;0.40;0.40;;;24.10;89.30;;;;;;4973900;28;20102;-78
2023/07/25 11:05:14;;;;;;;0.85;0.57;;;24.40;90.20;;;;;;4973906;28;20054;-78
2023/07/25 11:07:53;;;;;;;1.98;0.70;;;23.90;90.10;;;;;;4973179;28;20143;-79
2023/07/25 11:10:28;;;;;;;0.85;0.35;;;23.50;91.50;;;;;;4956238;28;20038;-80
2023/07/25 11:12:58;;;;;;;0.57;0.57;;;23.60;91.20;;;;;;4956154;28;20030;-78
2023/07/25 11:15:24;;;;;;;2.42;0.73;;;25.00;91.00;;;;;;4973530;28;20027;-79
2023/07/25 11:17:50;;;;;;;1.48;0.50;;;26.20;86.40;;;;;;4955963;28;20110;-79
2023/07/25 11:20:18;;;;;;;0.68;0.55;;;26.80;88.00;;;;;;4955833;28;20049;-78
2023/07/25 11:22:48;;;;;;;0.30;0.30;;;25.80;77.90;;;;;;4955716;28;20427;-79
2023/07/25 11:25:14;;;;;;;0.60;0.60;;;24.10;80.40;;;;;;4973389;28;20027;-78
2023/07/25 11:27:41;;;;;;;1.52;0.55;;;23.50;83.00;;;;;;4955679;28;20038;-79
2023/07/25 11:30:15;;;;;;;0.38;0.32;;;23.30;85.00;;;;;;4973202;28;20019;-78
2023/07/25 11:32:49;;;;;;;1.33;0.85;;;23.30;85.40;;;;;;4955777;28;20102;-78
2023/07/25 11:35:15;;;;;;;1.38;0.50;;;23.30;86.80;;;;;;4955945;28;20450;-79
2023/07/25 11:37:43;;;;;;;1.95;0.77;;;23.30;86.10;;;;;;4973276;28;20045;-78
2023/07/25 11:40:12;;;;;;;0.80;0.57;;;22.60;87.10;;;;;;4958410;28;20438;-78
2023/07/25 11:42:43;;;;;;;0.93;0.50;;;21.80;91.00;;;;;;4976930;28;20159;-77
2023/07/25 11:45:14;;;;;;;0.85;0.85;;;20.50;96.20;;;;;;4960446;28;20121;-79
2023/07/25 11:47:42;;;;;;;1.00;0.50;;;18.90;99.90;;;;;;4977625;28;20026;-79
2023/07/25 11:50:10;;;;;;;0.40;0.40;;;18.10;99.90;;;;;;4981428;28;20023;-79
2023/07/25 11:52:39;;;;;;;2.38;1.00;;;18.00;99.90;;;;;;4960607;28;20090;-79
2023/07/25 11:55:07;;;;;;;1.10;0.38;;;18.00;99.90;;;;;;4976971;28;20027;-78
2023/07/25 11:57:34;;;;;;;0.30;0.30;;;17.60;99.90;;;;;;4958692;28;20033;-78
2023/07/25 12:00:02;;;;;;;0.85;0.40;;;17.30;99.90;;;;;;4960483;28;20027;-78
2023/07/25 12:02:35;;;;;;;0.22;0.22;;;17.40;99.90;;;;;;4960073;28;20034;-78
2023/07/25 12:05:00;;;;;;;0.30;0.30;;;17.40;99.90;;;;;;4958956;28;20098;-78
2023/07/25 12:07:26;;;;;;;6.28;1.38;;;17.40;99.90;;;;;;4958944;28;20501;-78
2023/07/25 12:09:53;;;;;;;0.32;0.32;;;17.60;99.90;;;;;;4976976;28;20443;-79
2023/07/25 12:12:20;;;;;;;2.45;0.30;;;17.90;99.90;;;;;;4959041;28;20038;-78
2023/07/25 12:14:55;;;;;;;1.05;0.38;;;18.70;99.90;;;;;;4957753;28;20027;-78
2023/07/25 12:17:21;;;;;;;0.40;0.40;;;19.50;99.90;;;;;;4957487;28;20035;-78
2023/07/25 12:19:53;;;;;;;1.00;0.35;;;19.80;99.90;;;;;;4957706;28;20038;-78
2023/07/25 12:22:20;;;;;;;0.32;0.28;;;20.30;99.90;;;;;;4956754;28;20047;-78
2023/07/25 12:24:46;;;;;;;0.57;0.40;;;20.90;99.90;;;;;;4973421;28;20050;-78
2023/07/25 12:27:19;;;;;;;0.68;0.68;;;21.10;99.90;;;;;;4958450;28;20432;-79
2023/07/25 12:29:45;;;;;;;0.93;0.35;;;21.40;99.90;;;;;;4955589;28;20030;-80
2023/07/25 12:32:13;;;;;;;0.90;0.40;;;22.50;99.90;;;;;;4955157;28;20023;-78
2023/07/25 12:34:38;;;;;;;0.50;0.50;;;23.20;99.90;;;;;;4954896;28;20051;-80
2023/07/25 12:37:04;;;;;;;0.43;0.43;;;23.90;98.40;;;;;;4971646;28;20483;-78
2023/07/25 12:39:30;;;;;;;0.30;0.30;;;24.10;94.10;;;;;;4971976;28;20041;-79
2023/07/25 12:41:56;;;;;;;0.65;0.50;;;24.60;96.40;;;;;;4972101;28;20026;-79
2023/07/25 12:44:21;;;;;;;1.75;0.40;;;24.60;94.40;;;;;;4954639;28;20263;-80
2023/07/25 12:46:47;;;;;;;0.35;0.20;;;24.90;92.50;;;;;;4972100;28;20110;-79